»·PEaware :: N348ME KSNA-KBUR

N348ME :: KSNA-KBUR

FLIGHT INFORMATION

Flight Status: Arrived
Operator: Privately registered:
United States
More flights under this callsign
Pilot: Paul W. (11376)
Aircraft: CESSNA 172 SKYHAWK
(C172)
More flights by this aircraft type
Origin: KSNA John Wayne-Orange Co
United States
Destination: KBUR Bob Hope-Burbank
United States
More flights between these airports :: More routes between these airports
Route: +SLI V23 POPPR SMO125R SMO SMO311R SILEX
File this flight plan on PilotEdge
Remarks: For I-3
Altitude:
(Current/Filed)
4,000ft
Speed:
(Current/Filed)
115kts
Departed: 15-May-18 07:47 PM
Arrived: 15-May-18 08:26 PM
Distance/Time
Traveled:
0nm/0:39
Distance/Time
To Go:
Arrived

Flight Plot

Page will automatically refresh every two minutes.


Map Options




Map Legend


Flown Route
Filed Route
Departure Airport
Arrival Airport
Navaid (VOR, NDB)
Fix

Horizontal Profiles

Position Reports

Time Latitude Longitude Heading Altitude Ground
Speed
15-May-18 19:34 33.671877 -117.867016 205 60ft 0kts
15-May-18 19:35 33.671877 -117.867016 205 60ft 0kts
15-May-18 19:36 33.671877 -117.867016 205 60ft 0kts
15-May-18 19:37 33.671877 -117.867016 205 60ft 0kts
15-May-18 19:38 33.671877 -117.867016 205 60ft 0kts
15-May-18 19:39 33.671877 -117.867016 205 60ft 0kts
15-May-18 19:40 33.671877 -117.867016 205 60ft 0kts
15-May-18 19:41 33.671877 -117.867016 205 60ft 0kts
15-May-18 19:42 33.671877 -117.867016 205 60ft 0kts
15-May-18 19:43 33.671877 -117.867016 205 60ft 0kts
15-May-18 19:44 33.673918 -117.867195 27 60ft 12kts
15-May-18 19:45 33.676770 -117.865358 22 60ft 12kts
15-May-18 19:46 33.679945 -117.864273 223 60ft 14kts
15-May-18 19:47 33.666910 -117.873673 230 692ft 64kts
15-May-18 19:48 33.655582 -117.890290 228 1408ft 78kts
15-May-18 19:49 33.643135 -117.906134 226 2336ft 55kts
15-May-18 19:50 33.632437 -117.921078 227 3011ft 63kts
15-May-18 19:51 33.620626 -117.936884 226 3710ft 62kts
15-May-18 19:52 33.606748 -117.955584 227 4041ft 97kts
15-May-18 19:53 33.587361 -117.983560 247 4154ft 107kts
15-May-18 19:54 33.603155 -118.013866 319 4070ft 122kts
15-May-18 19:55 33.630804 -118.037785 317 4042ft 122kts
15-May-18 19:56 33.656758 -118.063514 310 4031ft 120kts
15-May-18 19:57 33.681242 -118.091356 306 3979ft 120kts
15-May-18 19:58 33.704695 -118.119404 309 3996ft 119kts
15-May-18 19:59 33.728042 -118.146991 310 4027ft 118kts
15-May-18 20:00 33.750047 -118.175903 304 4039ft 117kts
15-May-18 20:01 33.770213 -118.206211 304 4046ft 117kts
15-May-18 20:02 33.793479 -118.233476 307 4073ft 115kts
15-May-18 20:03 33.818474 -118.258452 315 4070ft 117kts
15-May-18 20:04 33.843226 -118.283690 310 4069ft 116kts
15-May-18 20:05 33.869060 -118.307959 313 4036ft 118kts
15-May-18 20:06 33.892704 -118.334801 306 4013ft 116kts
15-May-18 20:07 33.918014 -118.359832 317 4012ft 119kts
15-May-18 20:08 33.942141 -118.386586 310 3995ft 120kts
15-May-18 20:09 33.968807 -118.411578 316 3996ft 122kts
15-May-18 20:10 33.994955 -118.438242 314 3996ft 123kts
15-May-18 20:11 34.023232 -118.462115 327 4005ft 126kts
15-May-18 20:12 34.052092 -118.485487 316 4026ft 124kts
15-May-18 20:13 34.079717 -118.510749 316 4053ft 124kts
15-May-18 20:14 34.107639 -118.535139 321 4050ft 127kts
15-May-18 20:15 34.137438 -118.558309 321 4037ft 128kts
15-May-18 20:16 34.165913 -118.584233 322 3998ft 130kts
15-May-18 20:17 34.197146 -118.603297 331 3027ft 109kts
15-May-18 20:18 34.214647 -118.598026 105 2982ft 96kts
15-May-18 20:19 34.208417 -118.567818 112 3128ft 88kts
15-May-18 20:20 34.200970 -118.536807 99 3152ft 93kts
15-May-18 20:21 34.201272 -118.502186 96 2954ft 103kts
15-May-18 20:22 34.198977 -118.469042 98 2478ft 87kts
15-May-18 20:23 34.198707 -118.438915 95 1959ft 91kts
15-May-18 20:24 34.198525 -118.407752 92 1458ft 94kts
15-May-18 20:25 34.198088 -118.378902 98 1093ft 69kts
15-May-18 20:26 34.197584 -118.358918 87 780ft 11kts
15-May-18 20:27 34.196701 -118.357946 177 780ft 5kts
15-May-18 20:28 34.196211 -118.357925 172 780ft 0kts
15-May-18 20:29 34.196211 -118.357925 172 780ft 0kts
15-May-18 20:30 34.196211 -118.357925 172 780ft 0kts
15-May-18 20:31 34.196211 -118.357925 172 780ft 0kts
15-May-18 20:32 34.196211 -118.357925 172 780ft 0kts
15-May-18 20:33 34.196211 -118.357925 172 780ft 0kts
15-May-18 20:34 34.196211 -118.357925 172 780ft 0kts
15-May-18 20:35 33.671877 -117.867015 205 60ft 0kts
15-May-18 20:36 33.671877 -117.867016 205 60ft 0kts
15-May-18 20:37 33.671877 -117.867016 205 60ft 0kts
15-May-18 20:38 33.671877 -117.867016 205 60ft 0kts
15-May-18 20:39 33.671877 -117.867016 205 60ft 0kts
15-May-18 20:40 33.671877 -117.867016 205 60ft 0kts

Navigation Log

Ident Type
1. KSNA Airport
2. SLI Navaid
3. POPPR Fix
4. SMO Navaid
5. SILEX Fix
6. KBUR Airport